sensor_id;sensor_type;location;lat;lon;timestamp;temperature;humidity
51557;DHT22;38766;53.194;5.532;2023-02-27T00:01:11;3.70;99.90
51557;DHT22;38766;53.194;5.532;2023-02-27T00:03:37;3.70;99.90
51557;DHT22;38766;53.194;5.532;2023-02-27T00:06:03;3.60;99.90
51557;DHT22;38766;53.194;5.532;2023-02-27T00:08:29;3.60;99.90
51557;DHT22;38766;53.194;5.532;2023-02-27T00:10:57;3.60;99.90
51557;DHT22;38766;53.194;5.532;2023-02-27T00:13:22;3.60;99.90
51557;DHT22;38766;53.194;5.532;2023-02-27T00:15:48;3.50;99.90
51557;DHT22;38766;53.194;5.532;2023-02-27T00:18:14;3.50;99.90
51557;DHT22;38766;53.194;5.532;2023-02-27T00:20:40;3.40;99.90
51557;DHT22;38766;53.194;5.532;2023-02-27T00:23:07;3.40;99.90
51557;DHT22;38766;53.194;5.532;2023-02-27T00:25:35;3.30;99.90
51557;DHT22;38766;53.194;5.532;2023-02-27T00:28:01;3.30;99.90
51557;DHT22;38766;53.194;5.532;2023-02-27T00:30:26;3.30;99.90
51557;DHT22;38766;53.194;5.532;2023-02-27T00:32:53;3.30;99.90
51557;DHT22;38766;53.194;5.532;2023-02-27T00:35:19;3.20;99.90
51557;DHT22;38766;53.194;5.532;2023-02-27T00:37:45;3.20;99.90
51557;DHT22;38766;53.194;5.532;2023-02-27T00:40:14;3.20;99.90
51557;DHT22;38766;53.194;5.532;2023-02-27T00:42:39;3.30;99.90
51557;DHT22;38766;53.194;5.532;2023-02-27T00:45:06;3.20;99.90
51557;DHT22;38766;53.194;5.532;2023-02-27T00:47:33;3.20;99.90
51557;DHT22;38766;53.194;5.532;2023-02-27T00:49:59;3.20;99.90
51557;DHT22;38766;53.194;5.532;2023-02-27T00:52:25;3.10;99.90
51557;DHT22;38766;53.194;5.532;2023-02-27T00:54:50;3.10;99.90
51557;DHT22;38766;53.194;5.532;2023-02-27T00:57:16;3.10;99.90
51557;DHT22;38766;53.194;5.532;2023-02-27T00:59:42;3.10;99.90
51557;DHT22;38766;53.194;5.532;2023-02-27T01:02:08;3.00;99.90
51557;DHT22;38766;53.194;5.532;2023-02-27T01:04:34;3.00;99.90
51557;DHT22;38766;53.194;5.532;2023-02-27T01:07:00;3.00;99.90
51557;DHT22;38766;53.194;5.532;2023-02-27T01:09:26;3.00;99.90
51557;DHT22;38766;53.194;5.532;2023-02-27T01:11:52;3.00;99.90
51557;DHT22;38766;53.194;5.532;2023-02-27T01:14:18;3.00;99.90
51557;DHT22;38766;53.194;5.532;2023-02-27T01:16:44;2.90;99.90
51557;DHT22;38766;53.194;5.532;2023-02-27T01:19:10;2.90;99.90
51557;DHT22;38766;53.194;5.532;2023-02-27T01:21:35;2.90;99.90
51557;DHT22;38766;53.194;5.532;2023-02-27T01:24:01;2.90;99.90
51557;DHT22;38766;53.194;5.532;2023-02-27T01:26:27;2.80;99.90
51557;DHT22;38766;53.194;5.532;2023-02-27T01:28:52;2.80;99.90
51557;DHT22;38766;53.194;5.532;2023-02-27T01:31:18;2.80;99.90
51557;DHT22;38766;53.194;5.532;2023-02-27T01:33:44;2.80;99.90
51557;DHT22;38766;53.194;5.532;2023-02-27T01:36:10;2.70;99.90
51557;DHT22;38766;53.194;5.532;2023-02-27T01:38:35;2.80;99.90
51557;DHT22;38766;53.194;5.532;2023-02-27T01:41:01;2.70;99.90
51557;DHT22;38766;53.194;5.532;2023-02-27T01:43:27;2.70;99.90
51557;DHT22;38766;53.194;5.532;2023-02-27T01:45:53;2.70;99.90
51557;DHT22;38766;53.194;5.532;2023-02-27T01:48:33;2.70;99.90
51557;DHT22;38766;53.194;5.532;2023-02-27T01:51:18;2.70;99.90
51557;DHT22;38766;53.194;5.532;2023-02-27T01:53:46;2.60;99.90
51557;DHT22;38766;53.194;5.532;2023-02-27T01:56:19;2.60;99.90
51557;DHT22;38766;53.194;5.532;2023-02-27T01:58:46;2.60;99.90
51557;DHT22;38766;53.194;5.532;2023-02-27T02:01:13;2.50;99.90
51557;DHT22;38766;53.194;5.532;2023-02-27T02:06:23;2.50;99.90
51557;DHT22;38766;53.194;5.532;2023-02-27T02:08:52;2.50;99.90
51557;DHT22;38766;53.194;5.532;2023-02-27T02:11:19;2.50;99.90
51557;DHT22;38766;53.194;5.532;2023-02-27T02:13:48;2.50;99.90
51557;DHT22;38766;53.194;5.532;2023-02-27T02:24:45;2.50;99.90
51557;DHT22;38766;53.194;5.532;2023-02-27T02:44:23;2.40;99.90
51557;DHT22;38766;53.194;5.532;2023-02-27T02:49:26;2.30;99.90
51557;DHT22;38766;53.194;5.532;2023-02-27T02:52:21;2.30;99.90
51557;DHT22;38766;53.194;5.532;2023-02-27T02:55:04;2.30;99.90
51557;DHT22;38766;53.194;5.532;2023-02-27T02:57:39;2.30;99.90
51557;DHT22;38766;53.194;5.532;2023-02-27T03:00:14;2.30;99.90
51557;DHT22;38766;53.194;5.532;2023-02-27T03:03:07;2.30;99.90
51557;DHT22;38766;53.194;5.532;2023-02-27T03:05:43;2.30;99.90
51557;DHT22;38766;53.194;5.532;2023-02-27T03:08:14;2.30;99.90
51557;DHT22;38766;53.194;5.532;2023-02-27T03:10:53;2.30;99.90
51557;DHT22;38766;53.194;5.532;2023-02-27T03:18:29;2.30;99.90
51557;DHT22;38766;53.194;5.532;2023-02-27T03:21:21;2.30;99.90
51557;DHT22;38766;53.194;5.532;2023-02-27T03:23:47;2.30;99.90
51557;DHT22;38766;53.194;5.532;2023-02-27T03:26:17;2.20;99.90
51557;DHT22;38766;53.194;5.532;2023-02-27T03:29:21;2.30;99.90
51557;DHT22;38766;53.194;5.532;2023-02-27T03:31:48;2.30;99.90
51557;DHT22;38766;53.194;5.532;2023-02-27T03:34:33;2.20;99.90
51557;DHT22;38766;53.194;5.532;2023-02-27T03:37:11;2.20;99.90
51557;DHT22;38766;53.194;5.532;2023-02-27T03:47:59;2.20;99.90
51557;DHT22;38766;53.194;5.532;2023-02-27T03:50:25;2.20;99.90
51557;DHT22;38766;53.194;5.532;2023-02-27T03:52:51;2.20;99.90
51557;DHT22;38766;53.194;5.532;2023-02-27T03:55:20;2.20;99.90
51557;DHT22;38766;53.194;5.532;2023-02-27T03:57:48;2.20;99.90
51557;DHT22;38766;53.194;5.532;2023-02-27T04:00:20;2.20;99.90
51557;DHT22;38766;53.194;5.532;2023-02-27T04:02:47;2.20;99.90
51557;DHT22;38766;53.194;5.532;2023-02-27T04:05:18;2.20;99.90
51557;DHT22;38766;53.194;5.532;2023-02-27T04:16:22;2.20;99.90
51557;DHT22;38766;53.194;5.532;2023-02-27T04:19:05;2.20;99.90
51557;DHT22;38766;53.194;5.532;2023-02-27T04:24:38;2.20;99.90
51557;DHT22;38766;53.194;5.532;2023-02-27T04:29:56;2.20;99.90
51557;DHT22;38766;53.194;5.532;2023-02-27T04:32:48;2.20;99.90
51557;DHT22;38766;53.194;5.532;2023-02-27T04:35:22;2.30;99.90
51557;DHT22;38766;53.194;5.532;2023-02-27T04:38:25;2.30;99.90
51557;DHT22;38766;53.194;5.532;2023-02-27T04:40:57;2.30;99.90
51557;DHT22;38766;53.194;5.532;2023-02-27T04:43:25;2.30;99.90
51557;DHT22;38766;53.194;5.532;2023-02-27T04:45:55;2.30;99.90
51557;DHT22;38766;53.194;5.532;2023-02-27T04:48:29;2.30;99.90
51557;DHT22;38766;53.194;5.532;2023-02-27T04:51:12;2.40;99.90
51557;DHT22;38766;53.194;5.532;2023-02-27T04:53:53;2.40;99.90
51557;DHT22;38766;53.194;5.532;2023-02-27T04:56:24;2.50;99.90
51557;DHT22;38766;53.194;5.532;2023-02-27T04:58:55;2.40;99.90
51557;DHT22;38766;53.194;5.532;2023-02-27T05:01:28;2.40;99.90
51557;DHT22;38766;53.194;5.532;2023-02-27T05:03:55;2.50;99.90
51557;DHT22;38766;53.194;5.532;2023-02-27T05:06:27;2.50;99.90
51557;DHT22;38766;53.194;5.532;2023-02-27T05:09:59;2.50;99.90
51557;DHT22;38766;53.194;5.532;2023-02-27T05:15:00;2.60;99.90
51557;DHT22;38766;53.194;5.532;2023-02-27T05:17:35;2.60;99.90
51557;DHT22;38766;53.194;5.532;2023-02-27T05:20:02;2.60;99.90
51557;DHT22;38766;53.194;5.532;2023-02-27T05:22:35;2.70;99.90
51557;DHT22;38766;53.194;5.532;2023-02-27T05:25:31;2.70;99.90
51557;DHT22;38766;53.194;5.532;2023-02-27T05:28:20;2.70;99.90
51557;DHT22;38766;53.194;5.532;2023-02-27T05:30:55;2.70;99.90
51557;DHT22;38766;53.194;5.532;2023-02-27T05:33:44;2.70;99.90
51557;DHT22;38766;53.194;5.532;2023-02-27T05:36:20;2.80;99.90
51557;DHT22;38766;53.194;5.532;2023-02-27T05:38:54;2.80;99.90
51557;DHT22;38766;53.194;5.532;2023-02-27T05:41:30;2.80;99.90
51557;DHT22;38766;53.194;5.532;2023-02-27T05:44:05;2.90;99.90
51557;DHT22;38766;53.194;5.532;2023-02-27T05:46:36;2.90;99.90
51557;DHT22;38766;53.194;5.532;2023-02-27T05:49:25;2.90;99.90
51557;DHT22;38766;53.194;5.532;2023-02-27T05:51:54;2.90;99.90
51557;DHT22;38766;53.194;5.532;2023-02-27T05:57:09;3.00;99.90
51557;DHT22;38766;53.194;5.532;2023-02-27T05:59:42;3.00;99.90
51557;DHT22;38766;53.194;5.532;2023-02-27T06:02:12;3.00;99.90
51557;DHT22;38766;53.194;5.532;2023-02-27T06:04:39;3.00;99.90
51557;DHT22;38766;53.194;5.532;2023-02-27T06:07:05;3.00;99.90
51557;DHT22;38766;53.194;5.532;2023-02-27T06:09:31;3.10;99.90
51557;DHT22;38766;53.194;5.532;2023-02-27T06:11:59;3.10;99.90
51557;DHT22;38766;53.194;5.532;2023-02-27T06:14:25;3.10;99.90
51557;DHT22;38766;53.194;5.532;2023-02-27T06:16:50;3.10;99.90
51557;DHT22;38766;53.194;5.532;2023-02-27T06:19:16;3.10;99.90
51557;DHT22;38766;53.194;5.532;2023-02-27T06:21:45;3.00;99.90
51557;DHT22;38766;53.194;5.532;2023-02-27T06:24:10;3.10;99.90
51557;DHT22;38766;53.194;5.532;2023-02-27T06:26:36;3.10;99.90
51557;DHT22;38766;53.194;5.532;2023-02-27T06:29:01;3.00;99.90
51557;DHT22;38766;53.194;5.532;2023-02-27T06:31:27;3.00;99.90
51557;DHT22;38766;53.194;5.532;2023-02-27T06:33:53;3.00;99.90
51557;DHT22;38766;53.194;5.532;2023-02-27T06:36:20;3.00;99.90
51557;DHT22;38766;53.194;5.532;2023-02-27T06:38:47;2.90;99.90
51557;DHT22;38766;53.194;5.532;2023-02-27T06:41:13;2.90;99.90
51557;DHT22;38766;53.194;5.532;2023-02-27T06:43:38;2.90;99.90
51557;DHT22;38766;53.194;5.532;2023-02-27T06:46:04;2.90;99.90
51557;DHT22;38766;53.194;5.532;2023-02-27T06:48:30;2.90;99.90
51557;DHT22;38766;53.194;5.532;2023-02-27T06:50:55;2.90;99.90
51557;DHT22;38766;53.194;5.532;2023-02-27T06:53:22;2.90;99.90
51557;DHT22;38766;53.194;5.532;2023-02-27T06:55:48;2.90;99.90
51557;DHT22;38766;53.194;5.532;2023-02-27T06:58:15;2.90;99.90
51557;DHT22;38766;53.194;5.532;2023-02-27T07:00:40;3.00;99.90
51557;DHT22;38766;53.194;5.532;2023-02-27T07:03:06;3.00;99.90
51557;DHT22;38766;53.194;5.532;2023-02-27T07:05:31;3.10;99.90
51557;DHT22;38766;53.194;5.532;2023-02-27T07:07:57;3.10;99.90
51557;DHT22;38766;53.194;5.532;2023-02-27T07:10:23;3.10;99.90
51557;DHT22;38766;53.194;5.532;2023-02-27T07:12:49;3.10;99.90
51557;DHT22;38766;53.194;5.532;2023-02-27T07:15:15;3.20;99.90
51557;DHT22;38766;53.194;5.532;2023-02-27T07:17:40;3.30;99.90
51557;DHT22;38766;53.194;5.532;2023-02-27T07:20:08;3.30;99.90
51557;DHT22;38766;53.194;5.532;2023-02-27T07:22:35;3.40;99.90
51557;DHT22;38766;53.194;5.532;2023-02-27T07:25:01;3.40;99.90
51557;DHT22;38766;53.194;5.532;2023-02-27T07:27:28;3.50;99.90
51557;DHT22;38766;53.194;5.532;2023-02-27T07:29:53;3.50;99.90
51557;DHT22;38766;53.194;5.532;2023-02-27T07:32:19;3.60;99.90
51557;DHT22;38766;53.194;5.532;2023-02-27T07:34:45;3.60;99.90
51557;DHT22;38766;53.194;5.532;2023-02-27T07:37:10;3.70;99.90
51557;DHT22;38766;53.194;5.532;2023-02-27T07:39:36;3.80;99.90
51557;DHT22;38766;53.194;5.532;2023-02-27T07:42:04;3.80;99.90
51557;DHT22;38766;53.194;5.532;2023-02-27T07:44:30;3.90;99.90
51557;DHT22;38766;53.194;5.532;2023-02-27T07:47:02;4.00;99.90
51557;DHT22;38766;53.194;5.532;2023-02-27T07:49:28;4.10;99.90
51557;DHT22;38766;53.194;5.532;2023-02-27T07:51:53;4.20;99.90
51557;DHT22;38766;53.194;5.532;2023-02-27T07:54:19;4.20;99.90
51557;DHT22;38766;53.194;5.532;2023-02-27T07:56:45;4.30;99.90
51557;DHT22;38766;53.194;5.532;2023-02-27T07:59:10;4.40;99.90
51557;DHT22;38766;53.194;5.532;2023-02-27T08:01:36;4.40;99.90
51557;DHT22;38766;53.194;5.532;2023-02-27T08:04:01;4.50;99.90
51557;DHT22;38766;53.194;5.532;2023-02-27T08:06:27;4.60;99.90
51557;DHT22;38766;53.194;5.532;2023-02-27T08:08:53;4.70;99.90
51557;DHT22;38766;53.194;5.532;2023-02-27T08:11:18;4.80;99.90
51557;DHT22;38766;53.194;5.532;2023-02-27T08:13:44;5.00;99.90
51557;DHT22;38766;53.194;5.532;2023-02-27T08:16:14;5.10;99.90
51557;DHT22;38766;53.194;5.532;2023-02-27T08:18:40;5.20;99.90
51557;DHT22;38766;53.194;5.532;2023-02-27T08:21:05;5.40;99.90
51557;DHT22;38766;53.194;5.532;2023-02-27T08:23:32;5.60;99.90
51557;DHT22;38766;53.194;5.532;2023-02-27T08:25:59;5.70;99.90
51557;DHT22;38766;53.194;5.532;2023-02-27T08:28:26;5.80;99.90
51557;DHT22;38766;53.194;5.532;2023-02-27T08:30:52;5.90;99.90
51557;DHT22;38766;53.194;5.532;2023-02-27T08:33:18;5.90;99.90
51557;DHT22;38766;53.194;5.532;2023-02-27T08:35:43;6.10;99.90
51557;DHT22;38766;53.194;5.532;2023-02-27T08:38:09;6.10;99.90
51557;DHT22;38766;53.194;5.532;2023-02-27T08:40:35;6.20;99.90
51557;DHT22;38766;53.194;5.532;2023-02-27T08:43:00;6.20;99.90
51557;DHT22;38766;53.194;5.532;2023-02-27T08:45:26;6.40;99.90
51557;DHT22;38766;53.194;5.532;2023-02-27T08:47:52;6.40;99.90
51557;DHT22;38766;53.194;5.532;2023-02-27T08:50:17;6.50;99.90
51557;DHT22;38766;53.194;5.532;2023-02-27T08:52:43;6.60;99.90
51557;DHT22;38766;53.194;5.532;2023-02-27T08:55:09;6.70;99.90
51557;DHT22;38766;53.194;5.532;2023-02-27T08:57:35;6.80;99.90
51557;DHT22;38766;53.194;5.532;2023-02-27T09:00:00;6.90;99.90
51557;DHT22;38766;53.194;5.532;2023-02-27T09:02:26;6.80;99.90
51557;DHT22;38766;53.194;5.532;2023-02-27T09:04:52;6.80;99.90
51557;DHT22;38766;53.194;5.532;2023-02-27T09:07:18;6.80;99.90
51557;DHT22;38766;53.194;5.532;2023-02-27T09:09:44;6.90;99.90
51557;DHT22;38766;53.194;5.532;2023-02-27T09:12:10;7.00;99.90
51557;DHT22;38766;53.194;5.532;2023-02-27T09:14:35;7.10;99.90
51557;DHT22;38766;53.194;5.532;2023-02-27T09:17:01;7.30;99.90
51557;DHT22;38766;53.194;5.532;2023-02-27T09:19:27;7.60;99.90
51557;DHT22;38766;53.194;5.532;2023-02-27T09:21:53;7.70;99.90
51557;DHT22;38766;53.194;5.532;2023-02-27T09:24:18;7.80;99.90
51557;DHT22;38766;53.194;5.532;2023-02-27T09:26:44;7.90;99.90
51557;DHT22;38766;53.194;5.532;2023-02-27T09:29:10;7.80;99.90
51557;DHT22;38766;53.194;5.532;2023-02-27T09:31:35;7.80;99.90
51557;DHT22;38766;53.194;5.532;2023-02-27T09:34:01;7.80;99.90
51557;DHT22;38766;53.194;5.532;2023-02-27T09:36:27;7.70;99.90
51557;DHT22;38766;53.194;5.532;2023-02-27T09:38:53;7.70;99.90
51557;DHT22;38766;53.194;5.532;2023-02-27T09:41:39;7.70;99.90
51557;DHT22;38766;53.194;5.532;2023-02-27T09:44:29;7.70;99.90
51557;DHT22;38766;53.194;5.532;2023-02-27T09:46:56;7.70;99.90
51557;DHT22;38766;53.194;5.532;2023-02-27T09:49:24;7.80;99.90
51557;DHT22;38766;53.194;5.532;2023-02-27T09:51:51;7.90;99.90
51557;DHT22;38766;53.194;5.532;2023-02-27T09:54:18;8.00;99.90
51557;DHT22;38766;53.194;5.532;2023-02-27T09:56:48;8.10;99.90
51557;DHT22;38766;53.194;5.532;2023-02-27T10:05:15;8.50;99.90
51557;DHT22;38766;53.194;5.532;2023-02-27T10:11:05;9.10;99.90
51557;DHT22;38766;53.194;5.532;2023-02-27T10:16:21;9.70;99.90
51557;DHT22;38766;53.194;5.532;2023-02-27T10:18:58;9.90;99.90
51557;DHT22;38766;53.194;5.532;2023-02-27T10:21:33;10.20;99.90
51557;DHT22;38766;53.194;5.532;2023-02-27T10:24:09;10.30;99.90
51557;DHT22;38766;53.194;5.532;2023-02-27T10:26:40;10.50;99.90
51557;DHT22;38766;53.194;5.532;2023-02-27T10:34:37;10.60;99.80
51557;DHT22;38766;53.194;5.532;2023-02-27T10:37:04;10.60;99.90
51557;DHT22;38766;53.194;5.532;2023-02-27T10:39:41;10.60;99.90
51557;DHT22;38766;53.194;5.532;2023-02-27T10:42:08;10.50;99.30
51557;DHT22;38766;53.194;5.532;2023-02-27T10:44:35;10.50;99.80
51557;DHT22;38766;53.194;5.532;2023-02-27T10:47:00;10.40;99.30
51557;DHT22;38766;53.194;5.532;2023-02-27T10:49:30;10.40;99.10
51557;DHT22;38766;53.194;5.532;2023-02-27T10:54:36;10.40;98.40
51557;DHT22;38766;53.194;5.532;2023-02-27T10:57:15;10.40;98.40
51557;DHT22;38766;53.194;5.532;2023-02-27T10:59:50;10.50;97.70
51557;DHT22;38766;53.194;5.532;2023-02-27T11:04:53;10.70;97.40
51557;DHT22;38766;53.194;5.532;2023-02-27T11:07:35;10.80;96.40
51557;DHT22;38766;53.194;5.532;2023-02-27T11:12:37;10.90;96.00
51557;DHT22;38766;53.194;5.532;2023-02-27T11:17:41;10.90;96.30
51557;DHT22;38766;53.194;5.532;2023-02-27T11:20:32;10.90;96.60
51557;DHT22;38766;53.194;5.532;2023-02-27T11:23:05;10.90;96.20
51557;DHT22;38766;53.194;5.532;2023-02-27T11:25:31;11.00;95.40
51557;DHT22;38766;53.194;5.532;2023-02-27T11:28:22;11.00;95.60
51557;DHT22;38766;53.194;5.532;2023-02-27T11:33:25;11.20;94.90
51557;DHT22;38766;53.194;5.532;2023-02-27T11:35:53;11.20;94.50
51557;DHT22;38766;53.194;5.532;2023-02-27T11:38:21;11.10;94.10
51557;DHT22;38766;53.194;5.532;2023-02-27T11:41:03;10.90;94.00
51557;DHT22;38766;53.194;5.532;2023-02-27T11:43:34;10.80;93.80
51557;DHT22;38766;53.194;5.532;2023-02-27T11:46:11;10.70;94.10
51557;DHT22;38766;53.194;5.532;2023-02-27T11:48:49;10.80;92.80
51557;DHT22;38766;53.194;5.532;2023-02-27T11:56:33;11.00;92.80
51557;DHT22;38766;53.194;5.532;2023-02-27T11:59:13;11.00;92.80
51557;DHT22;38766;53.194;5.532;2023-02-27T12:01:47;11.10;92.70
51557;DHT22;38766;53.194;5.532;2023-02-27T12:07:09;11.20;91.80
51557;DHT22;38766;53.194;5.532;2023-02-27T12:09:43;11.20;91.10
51557;DHT22;38766;53.194;5.532;2023-02-27T12:12:25;11.20;91.00
51557;DHT22;38766;53.194;5.532;2023-02-27T12:15:08;11.20;90.80
51557;DHT22;38766;53.194;5.532;2023-02-27T12:17:45;11.20;89.20
51557;DHT22;38766;53.194;5.532;2023-02-27T12:20:27;11.10;90.40
51557;DHT22;38766;53.194;5.532;2023-02-27T12:22:54;11.10;89.50
51557;DHT22;38766;53.194;5.532;2023-02-27T12:26:00;11.10;89.80
51557;DHT22;38766;53.194;5.532;2023-02-27T12:31:25;11.00;88.40
51557;DHT22;38766;53.194;5.532;2023-02-27T12:36:26;11.00;87.50
51557;DHT22;38766;53.194;5.532;2023-02-27T12:38:51;10.90;87.80
51557;DHT22;38766;53.194;5.532;2023-02-27T12:41:40;10.90;87.70
51557;DHT22;38766;53.194;5.532;2023-02-27T12:44:27;10.90;87.40
51557;DHT22;38766;53.194;5.532;2023-02-27T12:47:25;10.90;87.30
51557;DHT22;38766;53.194;5.532;2023-02-27T12:50:14;10.80;87.90
51557;DHT22;38766;53.194;5.532;2023-02-27T12:55:51;10.80;87.00
51557;DHT22;38766;53.194;5.532;2023-02-27T12:58:31;10.80;88.80
51557;DHT22;38766;53.194;5.532;2023-02-27T13:01:02;10.70;88.70
51557;DHT22;38766;53.194;5.532;2023-02-27T13:06:24;10.90;88.80
51557;DHT22;38766;53.194;5.532;2023-02-27T13:09:31;10.90;88.80
51557;DHT22;38766;53.194;5.532;2023-02-27T13:17:47;10.80;87.80
51557;DHT22;38766;53.194;5.532;2023-02-27T13:25:51;10.70;85.40
51557;DHT22;38766;53.194;5.532;2023-02-27T13:28:23;10.70;86.20
51557;DHT22;38766;53.194;5.532;2023-02-27T13:34:19;10.60;84.60
51557;DHT22;38766;53.194;5.532;2023-02-27T13:36:51;10.60;84.90
51557;DHT22;38766;53.194;5.532;2023-02-27T13:44:54;10.40;85.20
51557;DHT22;38766;53.194;5.532;2023-02-27T13:47:36;10.40;85.20
51557;DHT22;38766;53.194;5.532;2023-02-27T13:52:48;10.20;84.10
51557;DHT22;38766;53.194;5.532;2023-02-27T13:55:29;10.20;85.60
51557;DHT22;38766;53.194;5.532;2023-02-27T13:57:57;10.20;86.40
51557;DHT22;38766;53.194;5.532;2023-02-27T14:00:26;10.20;87.20
51557;DHT22;38766;53.194;5.532;2023-02-27T14:02:55;10.10;87.60
51557;DHT22;38766;53.194;5.532;2023-02-27T14:05:29;10.20;88.20
51557;DHT22;38766;53.194;5.532;2023-02-27T14:10:31;10.20;90.30
51557;DHT22;38766;53.194;5.532;2023-02-27T14:12:57;10.20;90.70
51557;DHT22;38766;53.194;5.532;2023-02-27T14:17:54;10.20;91.30
51557;DHT22;38766;53.194;5.532;2023-02-27T14:25:50;10.10;91.90
51557;DHT22;38766;53.194;5.532;2023-02-27T14:28:35;10.10;91.90
51557;DHT22;38766;53.194;5.532;2023-02-27T14:31:03;10.10;92.20
51557;DHT22;38766;53.194;5.532;2023-02-27T14:33:39;10.00;92.30
51557;DHT22;38766;53.194;5.532;2023-02-27T14:36:33;10.00;92.50
51557;DHT22;38766;53.194;5.532;2023-02-27T14:39:02;10.00;92.30
51557;DHT22;38766;53.194;5.532;2023-02-27T14:44:18;9.90;92.40
51557;DHT22;38766;53.194;5.532;2023-02-27T14:46:44;9.80;92.70
51557;DHT22;38766;53.194;5.532;2023-02-27T14:49:22;9.80;92.80
51557;DHT22;38766;53.194;5.532;2023-02-27T14:51:49;9.80;92.40
51557;DHT22;38766;53.194;5.532;2023-02-27T14:54:22;9.70;92.70
51557;DHT22;38766;53.194;5.532;2023-02-27T14:57:02;9.70;92.80
51557;DHT22;38766;53.194;5.532;2023-02-27T14:59:31;9.60;92.90
51557;DHT22;38766;53.194;5.532;2023-02-27T15:01:59;9.60;93.10
51557;DHT22;38766;53.194;5.532;2023-02-27T15:04:31;9.60;93.40
51557;DHT22;38766;53.194;5.532;2023-02-27T15:06:57;9.60;94.00
51557;DHT22;38766;53.194;5.532;2023-02-27T15:09:24;9.60;94.20
51557;DHT22;38766;53.194;5.532;2023-02-27T15:11:53;9.60;94.40
51557;DHT22;38766;53.194;5.532;2023-02-27T15:14:24;9.50;94.80
51557;DHT22;38766;53.194;5.532;2023-02-27T15:16:54;9.40;95.10
51557;DHT22;38766;53.194;5.532;2023-02-27T15:19:23;9.50;95.70
51557;DHT22;38766;53.194;5.532;2023-02-27T15:21:54;9.40;95.80
51557;DHT22;38766;53.194;5.532;2023-02-27T15:26:54;9.40;96.20
51557;DHT22;38766;53.194;5.532;2023-02-27T15:29:23;9.40;96.60
51557;DHT22;38766;53.194;5.532;2023-02-27T15:31:50;9.30;96.90
51557;DHT22;38766;53.194;5.532;2023-02-27T15:34:17;9.30;97.10
51557;DHT22;38766;53.194;5.532;2023-02-27T15:37:01;9.30;97.40
51557;DHT22;38766;53.194;5.532;2023-02-27T15:39:30;9.30;98.00
51557;DHT22;38766;53.194;5.532;2023-02-27T15:42:01;9.30;98.00
51557;DHT22;38766;53.194;5.532;2023-02-27T15:44:46;9.30;98.30
51557;DHT22;38766;53.194;5.532;2023-02-27T15:47:26;9.30;98.60
51557;DHT22;38766;53.194;5.532;2023-02-27T15:49:57;9.20;98.80
51557;DHT22;38766;53.194;5.532;2023-02-27T15:52:26;9.20;99.10
51557;DHT22;38766;53.194;5.532;2023-02-27T15:55:01;9.20;99.50
51557;DHT22;38766;53.194;5.532;2023-02-27T15:57:27;9.10;99.70
51557;DHT22;38766;53.194;5.532;2023-02-27T15:59:54;9.10;99.60
51557;DHT22;38766;53.194;5.532;2023-02-27T16:02:27;9.00;99.60
51557;DHT22;38766;53.194;5.532;2023-02-27T16:04:54;9.10;99.90
51557;DHT22;38766;53.194;5.532;2023-02-27T16:07:24;9.00;99.90
51557;DHT22;38766;53.194;5.532;2023-02-27T16:09:55;9.10;99.90
51557;DHT22;38766;53.194;5.532;2023-02-27T16:12:35;9.00;99.90
51557;DHT22;38766;53.194;5.532;2023-02-27T16:20:39;8.80;99.90
51557;DHT22;38766;53.194;5.532;2023-02-27T16:23:18;8.70;99.90
51557;DHT22;38766;53.194;5.532;2023-02-27T16:28:45;8.50;99.90
51557;DHT22;38766;53.194;5.532;2023-02-27T16:31:31;8.50;99.90
51557;DHT22;38766;53.194;5.532;2023-02-27T16:34:12;8.50;99.90
51557;DHT22;38766;53.194;5.532;2023-02-27T16:36:39;8.40;99.90
51557;DHT22;38766;53.194;5.532;2023-02-27T16:39:10;8.30;99.90
51557;DHT22;38766;53.194;5.532;2023-02-27T16:41:36;8.20;99.90
51557;DHT22;38766;53.194;5.532;2023-02-27T16:44:02;8.20;99.90
51557;DHT22;38766;53.194;5.532;2023-02-27T16:46:27;8.20;99.90
51557;DHT22;38766;53.194;5.532;2023-02-27T16:48:57;8.20;99.90
51557;DHT22;38766;53.194;5.532;2023-02-27T16:51:26;8.10;99.90
51557;DHT22;38766;53.194;5.532;2023-02-27T16:53:53;8.10;99.90
51557;DHT22;38766;53.194;5.532;2023-02-27T16:56:20;8.00;99.90
51557;DHT22;38766;53.194;5.532;2023-02-27T16:58:48;8.00;99.90
51557;DHT22;38766;53.194;5.532;2023-02-27T17:01:14;7.90;99.90
51557;DHT22;38766;53.194;5.532;2023-02-27T17:03:41;7.90;99.90
51557;DHT22;38766;53.194;5.532;2023-02-27T17:06:08;7.90;99.90
51557;DHT22;38766;53.194;5.532;2023-02-27T17:08:37;7.80;99.90
51557;DHT22;38766;53.194;5.532;2023-02-27T17:11:03;7.80;99.90
51557;DHT22;38766;53.194;5.532;2023-02-27T17:13:30;7.80;99.90
51557;DHT22;38766;53.194;5.532;2023-02-27T17:15:58;7.80;99.90
51557;DHT22;38766;53.194;5.532;2023-02-27T17:18:24;7.80;99.90
51557;DHT22;38766;53.194;5.532;2023-02-27T17:20:51;7.70;99.90
51557;DHT22;38766;53.194;5.532;2023-02-27T17:23:17;7.70;99.90
51557;DHT22;38766;53.194;5.532;2023-02-27T17:25:43;7.60;99.90
51557;DHT22;38766;53.194;5.532;2023-02-27T17:28:08;7.60;99.90
51557;DHT22;38766;53.194;5.532;2023-02-27T17:30:35;7.60;99.90
51557;DHT22;38766;53.194;5.532;2023-02-27T17:33:01;7.50;99.90
51557;DHT22;38766;53.194;5.532;2023-02-27T17:35:27;7.60;99.90
51557;DHT22;38766;53.194;5.532;2023-02-27T17:37:55;7.50;99.90
51557;DHT22;38766;53.194;5.532;2023-02-27T17:40:20;7.40;99.90
51557;DHT22;38766;53.194;5.532;2023-02-27T17:42:46;7.40;99.90
51557;DHT22;38766;53.194;5.532;2023-02-27T17:45:12;7.40;99.90
51557;DHT22;38766;53.194;5.532;2023-02-27T17:47:39;7.30;99.90
51557;DHT22;38766;53.194;5.532;2023-02-27T17:50:05;7.30;99.90
51557;DHT22;38766;53.194;5.532;2023-02-27T17:52:33;7.20;99.90
51557;DHT22;38766;53.194;5.532;2023-02-27T17:54:59;7.20;99.90
51557;DHT22;38766;53.194;5.532;2023-02-27T17:57:24;7.20;99.90
51557;DHT22;38766;53.194;5.532;2023-02-27T17:59:52;7.20;99.90
51557;DHT22;38766;53.194;5.532;2023-02-27T18:02:18;7.10;99.90
51557;DHT22;38766;53.194;5.532;2023-02-27T18:04:44;7.10;99.90
51557;DHT22;38766;53.194;5.532;2023-02-27T18:07:12;7.10;99.90
51557;DHT22;38766;53.194;5.532;2023-02-27T18:09:38;7.10;99.90
51557;DHT22;38766;53.194;5.532;2023-02-27T18:12:04;7.10;99.90
51557;DHT22;38766;53.194;5.532;2023-02-27T18:14:30;7.10;99.90
51557;DHT22;38766;53.194;5.532;2023-02-27T18:16:56;7.10;99.90
51557;DHT22;38766;53.194;5.532;2023-02-27T18:19:21;7.10;99.90
51557;DHT22;38766;53.194;5.532;2023-02-27T18:21:52;7.00;99.90
51557;DHT22;38766;53.194;5.532;2023-02-27T18:24:17;7.00;99.90
51557;DHT22;38766;53.194;5.532;2023-02-27T18:26:43;7.00;99.90
51557;DHT22;38766;53.194;5.532;2023-02-27T18:29:10;7.00;99.90
51557;DHT22;38766;53.194;5.532;2023-02-27T18:31:40;7.00;99.90
51557;DHT22;38766;53.194;5.532;2023-02-27T18:34:08;7.00;99.90
51557;DHT22;38766;53.194;5.532;2023-02-27T18:36:34;6.90;99.90
51557;DHT22;38766;53.194;5.532;2023-02-27T18:39:00;7.00;99.90
51557;DHT22;38766;53.194;5.532;2023-02-27T18:41:26;7.00;99.90
51557;DHT22;38766;53.194;5.532;2023-02-27T18:43:52;6.90;99.90